Granada, CO (81041)

04:13 AM MDT del 31 Agosto 2014 (GMT -0600)
Schenck Farms | Change Station
CLOSE
Current Station
Stazione meteo personale
Location: Holly, CO
Altitudine: 3619 ft
Stazioni meteo nelle vicinanze

Alt. 3619 ft 37.90 °N, 102.11 °W | Updated 5 minutes ago

Sereno
Sereno
69.4 °F
Sembra 69.4 °F
N
2.0
Vento Variabile Vento da SO
Gusts 8.0 mph

Oggi
Massima -- | Minima -- °F
--% Possibilità di precip.
Ieri
Massima -- | Minima -- °F
Precip. -- in
6:18 AM 7:20 PM
Luna crescente, 29% visible
Pressione 29.66 in
Visibilità 9.0 miglia
Nuvole Sereno
Punto di rugiada 52 °F
Umidità 54%
Piovosità 0.00 in
Spessore del manto nevoso Non disponibile.
Raggi UV 0 fuori da 12
Polline 10.40 fuori da 12
Qualità dell'aria Non disponibile.
Flu Activity Non disponibile.
METAR KLAA 310953Z AUTO 21003KT 9SM CLR 14/12 A2982 RMK AO2 SLP044 T01440117

More Conditions Fewer Conditions

Pressione 29.66 in
Visibilità 9.0 miglia
Nuvole Sereno
Punto di rugiada 52 °F
Umidità 54%
Piovosità 0.00 in
Spessore del manto nevoso Non disponibile.
Raggi UV 0 fuori da 12
Polline 10.40 fuori da 12
Qualità dell'aria Non disponibile.
Flu Activity Non disponibile.
METAR KLAA 310953Z AUTO 21003KT 9SM CLR 14/12 A2982 RMK AO2 SLP044 T01440117

More Conditions Fewer Conditions

10-Day Weather Forecast

Almanac

Astronomia

Aug. 31, 2014 Alba Tramonto
Ora attuale 06:18 MDT 19:20 MDT
Crepuscolo civile 05:51 MDT 19:47 MDT
Crepuscolo nautico 05:19 MDT 20:19 MDT
Crepuscolo astronomico 04:46 MDT 20:52 MDT
Luna 12:00 MDT 22:43 MDT
Estensione della luce visibile 13h 55m
Lunghezza del giorno
13h 01m
Tomorrow will be 2m 20s shorter.
Luna crescente, 29% of the Moon is Illuminated
Oggi
Luna crescente
Set 2
Primo quarto
Set 8
Luna piena
Set 15
Ultimo quarto
Set 24
Nuovo

Gli estremi di oggi

State Highs State Lows

Community

WunderPhotos

Upload Photos

1,748,834 foto caricate!

Nearby

Profondità neve

Stazione Profondità Altitudine
Apishapa 0 in 10000 ft
Whiskey Creek 0 in 10220 ft
Culebra #2 0 in 10500 ft
Ute Creek 0 in 10650 ft
Medano Pass 0 in 9620 ft

Attività sismica

Città  Distanza Mag. Data & Ora
Non sono state riportate attività sismiche nelle vicinanze.
Minimo Magnitudo Mostrato è 2.5.

Temperature delle acque costiere

Località Temperatura
Nessun dato dalle stazioni

Stazioni meteo nelle vicinanze